Time;durP1;ratioP1;P1;durP2;ratioP2;P2;SDS_P1;SDS_P2;PMS_P1;PMS_P2;Temp;Humidity;BMP_temperature;BMP_pressure;BME280_temperature;BME280_humidity;BME280_pressure;Samples;Min_cycle;Max_cycle;Signal;HPM_P1;HPM_P2
2023/02/27 00:01:58;;;;;;;8.03;3.30;;;-1.60;99.90;;;;;;5031877;28;20044;-76
2023/02/27 00:04:24;;;;;;;10.53;3.30;;;-1.60;99.90;;;;;;5036933;28;20021;-76
2023/02/27 00:06:49;;;;;;;5.43;3.13;;;-1.60;99.90;;;;;;5031653;28;20053;-76
2023/02/27 00:09:15;;;;;;;7.60;3.20;;;-1.60;99.90;;;;;;5033335;28;20028;-76
2023/02/27 00:11:42;;;;;;;4.67;3.23;;;-1.70;99.90;;;;;;5033729;28;20044;-76
2023/02/27 00:14:07;;;;;;;6.67;3.37;;;-1.70;99.90;;;;;;5034580;28;20049;-76
2023/02/27 00:16:33;;;;;;;6.03;2.90;;;-1.70;99.90;;;;;;5032282;28;20064;-76
2023/02/27 00:19:01;;;;;;;4.67;3.30;;;-1.70;99.90;;;;;;5032570;28;20020;-76
2023/02/27 00:21:27;;;;;;;6.00;3.33;;;-1.80;99.90;;;;;;5035788;28;20021;-76
2023/02/27 00:23:53;;;;;;;5.57;3.33;;;-1.90;99.90;;;;;;5037049;28;20057;-76
2023/02/27 00:26:18;;;;;;;6.50;3.27;;;-1.90;99.90;;;;;;5035035;28;20143;-76
2023/02/27 00:28:44;;;;;;;6.80;3.20;;;-1.90;99.90;;;;;;5037513;28;20021;-76
2023/02/27 00:31:09;;;;;;;5.07;3.43;;;-2.00;99.90;;;;;;5037121;28;20041;-76
2023/02/27 00:33:35;;;;;;;6.60;3.53;;;-2.00;99.90;;;;;;5037919;28;20025;-76
2023/02/27 00:36:02;;;;;;;6.63;4.50;;;-2.00;99.90;;;;;;5040994;28;20079;-76
2023/02/27 00:38:28;;;;;;;5.47;3.40;;;-2.00;99.90;;;;;;5039333;28;20033;-76
2023/02/27 00:40:53;;;;;;;5.80;3.10;;;-2.00;99.90;;;;;;5037585;28;20034;-76
2023/02/27 00:43:19;;;;;;;6.40;3.47;;;-2.00;99.90;;;;;;5037113;28;20055;-76
2023/02/27 00:45:46;;;;;;;5.43;3.40;;;-2.00;99.90;;;;;;5037118;28;20042;-76
2023/02/27 00:48:12;;;;;;;5.13;3.40;;;-2.10;99.90;;;;;;5037621;28;20425;-76
2023/02/27 00:50:37;;;;;;;5.47;3.57;;;-2.00;99.90;;;;;;5034754;28;20037;-76
2023/02/27 00:53:03;;;;;;;6.10;3.40;;;-2.10;99.90;;;;;;5035835;28;20048;-76
2023/02/27 00:55:29;;;;;;;5.63;3.23;;;-2.10;99.90;;;;;;5035696;28;20034;-76
2023/02/27 00:57:54;;;;;;;4.83;3.30;;;-2.20;99.90;;;;;;5033281;28;20423;-76
2023/02/27 01:00:20;;;;;;;8.17;4.07;;;-2.20;99.90;;;;;;5034622;28;20036;-76
2023/02/27 01:02:45;;;;;;;5.27;3.27;;;-2.20;99.90;;;;;;5031694;28;20056;-76
2023/02/27 01:05:11;;;;;;;6.90;3.80;;;-2.30;99.90;;;;;;5031016;28;20159;-76
2023/02/27 01:07:36;;;;;;;10.93;4.70;;;-2.30;99.90;;;;;;5034968;28;20107;-76
2023/02/27 01:10:04;;;;;;;7.33;3.77;;;-2.30;99.90;;;;;;5037263;28;20034;-74
2023/02/27 01:12:29;;;;;;;9.77;4.97;;;-2.30;99.90;;;;;;5037160;28;20025;-74
2023/02/27 01:14:55;;;;;;;5.73;3.60;;;-2.30;99.90;;;;;;5036731;28;20033;-74
2023/02/27 01:17:20;;;;;;;5.20;3.50;;;-2.30;99.90;;;;;;5038150;28;20033;-74
2023/02/27 01:19:46;;;;;;;9.27;4.50;;;-2.20;99.90;;;;;;5038670;28;20868;-74
2023/02/27 01:22:11;;;;;;;5.20;3.40;;;-2.20;99.90;;;;;;5037869;28;20057;-74
2023/02/27 01:24:37;;;;;;;6.10;3.30;;;-2.20;99.90;;;;;;5038563;28;20045;-74
2023/02/27 01:27:03;;;;;;;5.93;3.70;;;-2.20;99.90;;;;;;5037560;28;20071;-74
2023/02/27 01:29:28;;;;;;;7.43;3.00;;;-2.20;99.90;;;;;;5038522;28;20501;-73
2023/02/27 01:31:54;;;;;;;6.13;3.57;;;-2.20;99.90;;;;;;5038258;28;20022;-74
2023/02/27 01:34:19;;;;;;;7.33;3.20;;;-2.20;99.90;;;;;;5036172;28;20520;-74
2023/02/27 01:36:45;;;;;;;4.47;3.00;;;-2.10;99.90;;;;;;5039373;28;20488;-74
2023/02/27 01:39:10;;;;;;;6.53;3.00;;;-2.20;99.90;;;;;;5036099;28;20025;-73
2023/02/27 01:41:36;;;;;;;6.83;2.93;;;-2.10;99.90;;;;;;5038416;28;20021;-74
2023/02/27 01:44:08;;;;;;;6.80;3.23;;;-2.00;99.90;;;;;;5041729;28;20163;-74
2023/02/27 01:46:34;;;;;;;5.07;2.80;;;-2.00;99.90;;;;;;5035246;28;20076;-74
2023/02/27 01:49:13;;;;;;;5.60;3.20;;;-2.00;99.90;;;;;;5037500;28;20025;-73
2023/02/27 01:51:50;;;;;;;4.27;3.00;;;-2.00;99.90;;;;;;5038217;28;20814;-74
2023/02/27 01:54:21;;;;;;;10.53;4.00;;;-2.00;99.90;;;;;;5038301;28;20021;-73
2023/02/27 01:56:47;;;;;;;4.93;3.37;;;-2.00;99.90;;;;;;5038915;28;20048;-74
2023/02/27 01:59:14;;;;;;;5.13;3.27;;;-2.00;99.90;;;;;;5037479;28;20059;-74
2023/02/27 02:01:39;;;;;;;4.73;3.20;;;-2.00;99.90;;;;;;5038148;28;20032;-74
2023/02/27 02:04:25;;;;;;;4.77;2.90;;;-2.00;99.90;;;;;;5038624;28;20025;-74
2023/02/27 02:07:01;;;;;;;;;;;-1.90;99.90;;;;;;5037782;28;20033;-74
2023/02/27 02:09:28;;;;;;;6.30;3.20;;;-1.90;99.90;;;;;;5033124;28;20027;-74
2023/02/27 02:11:55;;;;;;;5.97;3.00;;;-2.00;99.90;;;;;;5036535;28;20038;-74
2023/02/27 02:14:21;;;;;;;5.50;3.03;;;-2.00;99.90;;;;;;5036629;28;20110;-74
2023/02/27 02:17:14;;;;;;;9.17;3.73;;;-1.90;99.90;;;;;;5036704;28;20063;-74
2023/02/27 02:19:58;;;;;;;4.00;2.97;;;-1.90;99.90;;;;;;5038097;28;20017;-74
2023/02/27 02:22:36;;;;;;;7.33;3.30;;;-1.90;99.90;;;;;;5034705;28;20060;-74
2023/02/27 02:25:39;;;;;;;7.07;3.40;;;-1.90;99.90;;;;;;5034444;28;20028;-74
2023/02/27 02:28:18;;;;;;;5.43;3.33;;;-1.80;99.90;;;;;;5036811;28;20040;-74
2023/02/27 02:31:21;;;;;;;4.30;3.10;;;-1.80;99.90;;;;;;5033440;28;20018;-74
2023/02/27 02:34:25;;;;;;;5.37;3.07;;;-1.80;99.90;;;;;;5040327;28;20036;-74
2023/02/27 02:36:53;;;;;;;5.83;3.40;;;-1.80;99.90;;;;;;5036112;28;20382;-74
2023/02/27 02:39:42;;;;;;;5.93;3.00;;;-1.80;99.90;;;;;;5036803;28;20196;-74
2023/02/27 02:42:26;;;;;;;6.07;3.27;;;-1.90;99.90;;;;;;5035162;28;20034;-73
2023/02/27 02:45:12;;;;;;;5.87;3.30;;;-1.90;99.90;;;;;;5036634;28;20022;-74
2023/02/27 02:47:48;;;;;;;6.60;3.30;;;-1.90;99.90;;;;;;5037273;28;20086;-73
2023/02/27 02:50:26;;;;;;;6.03;3.57;;;-1.90;99.90;;;;;;5051070;28;20440;-74
2023/02/27 02:53:00;;;;;;;6.43;3.20;;;-2.00;99.90;;;;;;5037969;28;20409;-74
2023/02/27 02:55:34;;;;;;;5.53;3.57;;;-2.00;99.90;;;;;;5035547;28;20025;-74
2023/02/27 02:58:02;;;;;;;5.07;3.63;;;-2.00;99.90;;;;;;5036668;28;20112;-74
2023/02/27 03:00:33;;;;;;;7.27;3.67;;;-2.00;99.90;;;;;;5036521;28;20365;-74
2023/02/27 03:03:27;;;;;;;5.00;3.20;;;-2.00;99.90;;;;;;5035861;28;20059;-74
2023/02/27 03:05:59;;;;;;;6.13;3.93;;;-2.10;99.90;;;;;;5026266;28;20033;-74
2023/02/27 03:08:30;;;;;;;5.63;3.50;;;-2.10;99.90;;;;;;5037073;28;20059;-74
2023/02/27 03:10:58;;;;;;;8.00;3.90;;;-2.10;99.90;;;;;;5033944;28;20112;-74
2023/02/27 03:13:33;;;;;;;5.83;3.57;;;-2.10;99.90;;;;;;5035563;28;20025;-74
2023/02/27 03:16:12;;;;;;;6.13;3.40;;;-2.00;99.90;;;;;;5032629;28;20054;-74
2023/02/27 03:18:46;;;;;;;5.60;3.47;;;-2.10;99.90;;;;;;5036775;28;20026;-74
2023/02/27 03:21:25;;;;;;;7.07;3.85;;;-2.20;99.90;;;;;;5034566;28;20381;-73
2023/02/27 03:23:53;;;;;;;5.87;3.43;;;-2.20;99.90;;;;;;5035724;28;20136;-74
2023/02/27 03:26:22;;;;;;;7.97;4.27;;;-2.20;99.90;;;;;;5035857;28;20051;-73
2023/02/27 03:29:08;;;;;;;5.30;3.83;;;-2.20;99.90;;;;;;5038878;28;20117;-73
2023/02/27 03:31:43;;;;;;;4.57;3.40;;;-2.20;99.90;;;;;;5036191;28;20036;-73
2023/02/27 03:34:23;;;;;;;4.90;3.43;;;-2.30;99.90;;;;;;5034619;28;20040;-74
2023/02/27 03:36:56;;;;;;;5.73;3.37;;;-2.30;99.90;;;;;;5036733;28;20418;-76
2023/02/27 03:39:44;;;;;;;6.77;3.63;;;-2.30;99.90;;;;;;5037794;28;20017;-76
2023/02/27 03:42:27;;;;;;;8.10;3.70;;;-2.30;99.90;;;;;;5037167;28;20030;-76
2023/02/27 03:45:26;;;;;;;4.43;3.40;;;-2.30;99.90;;;;;;5039966;28;20508;-76
2023/02/27 03:47:52;;;;;;;6.53;3.57;;;-2.30;99.90;;;;;;5042079;28;20064;-76
2023/02/27 03:50:17;;;;;;;6.07;3.97;;;-2.30;99.90;;;;;;5042015;28;20025;-76
2023/02/27 03:52:44;;;;;;;5.60;3.40;;;-2.30;99.90;;;;;;5038287;28;20029;-76
2023/02/27 03:55:16;;;;;;;6.07;3.47;;;-2.30;99.90;;;;;;5034865;28;20009;-76
2023/02/27 03:57:45;;;;;;;4.53;3.50;;;-2.30;99.90;;;;;;5037171;28;20410;-76
2023/02/27 04:00:15;;;;;;;6.37;3.50;;;-2.30;99.90;;;;;;5034998;28;20382;-76
2023/02/27 04:02:43;;;;;;;7.33;3.77;;;-2.30;99.90;;;;;;5035744;28;20040;-76
2023/02/27 04:05:09;;;;;;;8.60;3.53;;;-2.40;99.90;;;;;;5035570;28;20383;-76
2023/02/27 04:07:37;;;;;;;5.67;3.73;;;-2.30;99.90;;;;;;5033894;28;20025;-76
2023/02/27 04:10:43;;;;;;;5.07;3.37;;;-2.30;99.90;;;;;;5031436;28;20033;-76
2023/02/27 04:13:43;;;;;;;5.78;3.85;;;-2.30;99.90;;;;;;5036636;28;20032;-76
2023/02/27 04:16:20;;;;;;;6.00;3.27;;;-2.30;99.90;;;;;;5035450;28;20032;-76
2023/02/27 04:18:51;;;;;;;5.50;3.27;;;-2.30;99.90;;;;;;5034443;28;20382;-76
2023/02/27 04:21:41;;;;;;;5.43;3.30;;;-2.30;99.90;;;;;;5033539;28;20040;-76
2023/02/27 04:24:41;;;;;;;6.87;3.60;;;-2.30;99.90;;;;;;5033757;28;20028;-76
2023/02/27 04:27:22;;;;;;;6.23;3.23;;;-2.30;99.90;;;;;;5030965;28;20053;-76
2023/02/27 04:29:54;;;;;;;6.73;3.87;;;-2.40;99.90;;;;;;5029072;28;20161;-76
2023/02/27 04:32:32;;;;;;;6.67;4.07;;;-2.30;99.90;;;;;;5032667;28;20052;-76
2023/02/27 04:35:03;;;;;;;5.83;3.50;;;-2.30;99.90;;;;;;5031703;28;20493;-76
2023/02/27 04:37:42;;;;;;;5.40;3.23;;;-2.20;99.90;;;;;;5027719;28;20017;-76
2023/02/27 04:40:11;;;;;;;7.10;3.67;;;-2.20;99.90;;;;;;5031855;28;20474;-76
2023/02/27 04:42:46;;;;;;;4.80;3.43;;;-2.20;99.90;;;;;;5033532;28;21501;-76
2023/02/27 04:45:17;;;;;;;6.57;3.83;;;-2.20;99.90;;;;;;5036103;28;20028;-76
2023/02/27 04:47:48;;;;;;;6.07;3.50;;;-2.20;99.90;;;;;;5034820;28;20045;-76
2023/02/27 04:50:19;;;;;;;9.43;3.80;;;-2.20;99.90;;;;;;5037142;28;20040;-76
2023/02/27 04:52:51;;;;;;;4.90;3.47;;;-2.20;99.90;;;;;;5032874;28;20024;-76
2023/02/27 04:55:23;;;;;;;6.33;3.23;;;-2.20;99.90;;;;;;5034646;28;20064;-76
2023/02/27 04:57:56;;;;;;;7.30;3.40;;;-2.20;99.90;;;;;;5036980;28;20091;-76
2023/02/27 05:00:24;;;;;;;5.47;3.07;;;-2.20;99.90;;;;;;5033150;28;20026;-76
2023/02/27 05:02:55;;;;;;;5.67;3.40;;;-2.20;99.90;;;;;;5037519;28;20021;-76
2023/02/27 05:05:25;;;;;;;5.53;3.10;;;-2.10;99.90;;;;;;5033078;28;20021;-76
2023/02/27 05:08:00;;;;;;;8.10;3.40;;;-2.10;99.90;;;;;;5036832;28;20034;-76
2023/02/27 05:10:38;;;;;;;6.65;3.58;;;-2.10;99.90;;;;;;5037900;28;20028;-76
2023/02/27 05:13:16;;;;;;;6.47;3.60;;;-2.10;99.90;;;;;;5037569;28;20089;-76
2023/02/27 05:15:45;;;;;;;6.77;3.53;;;-2.20;99.90;;;;;;5036679;28;20029;-76
2023/02/27 05:18:13;;;;;;;6.23;3.60;;;-2.20;99.90;;;;;;5036596;28;20033;-76
2023/02/27 05:20:45;;;;;;;5.40;3.77;;;-2.30;99.90;;;;;;5036170;28;20116;-76
2023/02/27 05:23:16;;;;;;;10.27;5.67;;;-2.30;99.90;;;;;;5035010;28;20470;-76
2023/02/27 05:25:59;;;;;;;7.57;4.00;;;-2.30;99.90;;;;;;5036768;28;20100;-76
2023/02/27 05:28:57;;;;;;;8.03;4.10;;;-2.30;99.90;;;;;;5036934;28;20021;-76
2023/02/27 05:31:50;;;;;;;11.90;10.47;;;-2.40;99.90;;;;;;5034993;28;20111;-76
2023/02/27 05:34:31;;;;;;;10.03;5.40;;;-2.40;99.90;;;;;;5033246;28;20026;-76
2023/02/27 05:37:06;;;;;;;9.70;6.83;;;-2.40;99.90;;;;;;5034576;28;20575;-76
2023/02/27 05:39:35;;;;;;;9.38;4.40;;;-2.40;99.90;;;;;;5032202;28;20115;-76
2023/02/27 05:42:15;;;;;;;6.47;3.60;;;-2.40;99.90;;;;;;5029083;28;20089;-76
2023/02/27 05:44:54;;;;;;;10.50;6.07;;;-2.40;99.90;;;;;;5031388;28;20032;-76
2023/02/27 05:47:23;;;;;;;6.13;4.70;;;-2.40;99.90;;;;;;5032643;28;20107;-76
2023/02/27 05:50:09;;;;;;;13.40;5.60;;;-2.30;99.90;;;;;;5031716;28;20038;-76
2023/02/27 05:52:37;;;;;;;9.60;5.07;;;-2.30;99.90;;;;;;5031603;28;20163;-76
2023/02/27 05:55:13;;;;;;;13.83;8.47;;;-2.30;99.90;;;;;;5026641;28;20030;-76
2023/02/27 05:57:44;;;;;;;10.33;5.70;;;-2.30;99.90;;;;;;5024024;28;20033;-76
2023/02/27 06:00:20;;;;;;;11.30;4.47;;;-2.30;99.90;;;;;;5023188;28;20026;-76
2023/02/27 06:02:46;;;;;;;7.87;5.23;;;-2.30;99.90;;;;;;5025776;28;20033;-76
2023/02/27 06:05:17;;;;;;;7.27;5.20;;;-2.30;99.90;;;;;;5029510;28;20437;-76
2023/02/27 06:07:42;;;;;;;9.60;3.70;;;-2.30;99.90;;;;;;5028364;28;20627;-76
2023/02/27 06:10:15;;;;;;;9.13;4.40;;;-2.30;99.90;;;;;;5031603;28;20040;-76
2023/02/27 06:12:41;;;;;;;6.30;3.80;;;-2.30;99.90;;;;;;5032449;28;20036;-76
2023/02/27 06:15:07;;;;;;;7.37;4.07;;;-2.30;99.90;;;;;;5032576;28;20628;-76
2023/02/27 06:17:33;;;;;;;6.77;3.77;;;-2.20;99.90;;;;;;5031157;28;20021;-76
2023/02/27 06:19:58;;;;;;;6.80;3.80;;;-2.20;99.90;;;;;;5027079;28;20033;-76
2023/02/27 06:22:24;;;;;;;6.53;3.90;;;-2.20;99.90;;;;;;5030088;28;20029;-76
2023/02/27 06:24:49;;;;;;;5.13;3.47;;;-2.10;99.90;;;;;;5026015;28;20438;-76
2023/02/27 06:27:15;;;;;;;5.50;3.47;;;-2.20;99.90;;;;;;5028502;28;20402;-76
2023/02/27 06:29:40;;;;;;;6.87;4.00;;;-2.10;99.90;;;;;;5026542;28;20111;-76
2023/02/27 06:32:06;;;;;;;9.17;4.30;;;-2.10;99.90;;;;;;5023956;28;20025;-76
2023/02/27 06:34:31;;;;;;;6.67;3.93;;;-2.10;99.90;;;;;;5029311;28;20471;-76
2023/02/27 06:36:57;;;;;;;6.70;3.97;;;-2.10;99.90;;;;;;5027467;28;20919;-76
2023/02/27 06:39:22;;;;;;;5.90;4.33;;;-2.10;99.90;;;;;;5030806;28;20192;-76
2023/02/27 06:41:48;;;;;;;7.63;4.60;;;-2.10;99.90;;;;;;5032099;28;20734;-76
2023/02/27 06:44:14;;;;;;;8.17;4.90;;;-2.10;99.90;;;;;;5031758;28;20044;-76
2023/02/27 06:46:39;;;;;;;8.47;4.10;;;-2.10;99.90;;;;;;5030157;28;20422;-76
2023/02/27 06:49:05;;;;;;;9.57;4.80;;;-2.00;99.90;;;;;;5022190;28;20140;-76
2023/02/27 06:51:30;;;;;;;13.37;5.27;;;-2.00;99.90;;;;;;5016481;28;20041;-76
2023/02/27 06:53:57;;;;;;;14.73;6.23;;;-2.00;99.90;;;;;;5017103;28;20048;-76
2023/02/27 06:56:23;;;;;;;59.43;21.67;;;-1.90;99.90;;;;;;5019792;28;21325;-76
2023/02/27 06:58:49;;;;;;;83.67;27.60;;;-1.90;99.90;;;;;;5022070;28;20051;-76
2023/02/27 07:01:14;;;;;;;12.07;5.93;;;-1.90;99.90;;;;;;5023605;28;20143;-76
2023/02/27 07:03:40;;;;;;;11.57;5.43;;;-1.90;99.90;;;;;;5022634;28;20039;-74
2023/02/27 07:06:05;;;;;;;19.70;8.93;;;-1.80;99.90;;;;;;5022819;28;20109;-74
2023/02/27 07:08:31;;;;;;;7.97;5.00;;;-1.80;99.90;;;;;;5020863;28;20072;-74
2023/02/27 07:10:57;;;;;;;7.83;4.57;;;-1.80;99.90;;;;;;5018143;28;20033;-76
2023/02/27 07:13:22;;;;;;;12.33;5.63;;;-1.70;99.90;;;;;;5017946;28;20030;-76
2023/02/27 07:15:49;;;;;;;8.20;4.23;;;-1.70;99.90;;;;;;5021182;28;20029;-74
2023/02/27 07:18:15;;;;;;;6.43;4.03;;;-1.60;99.90;;;;;;5022198;28;20037;-74
2023/02/27 07:20:40;;;;;;;5.03;3.50;;;-1.70;99.90;;;;;;5021427;28;20025;-76
2023/02/27 07:23:06;;;;;;;5.77;4.10;;;-1.50;99.90;;;;;;5023159;28;20033;-74
2023/02/27 07:25:31;;;;;;;6.27;3.93;;;-1.50;99.90;;;;;;5025130;28;20481;-74
2023/02/27 07:27:57;;;;;;;7.70;4.40;;;-1.50;99.90;;;;;;5023881;28;20034;-74
2023/02/27 07:30:22;;;;;;;7.90;3.60;;;-1.50;99.90;;;;;;5026369;28;21473;-74
2023/02/27 07:32:49;;;;;;;8.10;4.10;;;-1.40;99.90;;;;;;5025961;28;20045;-74
2023/02/27 07:35:15;;;;;;;6.13;3.53;;;-1.40;99.90;;;;;;5021793;28;20029;-76
2023/02/27 07:37:40;;;;;;;13.97;4.27;;;-1.40;99.90;;;;;;5022080;28;20032;-76
2023/02/27 07:40:07;;;;;;;5.33;3.30;;;-1.40;99.90;;;;;;5020001;28;20030;-76
2023/02/27 07:42:33;;;;;;;7.57;3.30;;;-1.40;99.90;;;;;;5019456;28;20029;-76
2023/02/27 07:44:59;;;;;;;8.47;3.50;;;-1.30;99.90;;;;;;5018496;28;20618;-76
2023/02/27 07:47:25;;;;;;;16.97;9.47;;;-1.30;99.90;;;;;;5019159;28;20721;-76
2023/02/27 07:49:50;;;;;;;6.00;3.07;;;-1.20;99.90;;;;;;5018970;28;20031;-76
2023/02/27 07:52:16;;;;;;;6.87;3.20;;;-1.20;99.90;;;;;;5020240;28;20033;-76
2023/02/27 07:54:41;;;;;;;6.30;4.33;;;-1.20;99.90;;;;;;5021628;28;20398;-76
2023/02/27 07:57:07;;;;;;;11.37;5.53;;;-1.20;99.90;;;;;;5020783;28;20118;-77
2023/02/27 07:59:33;;;;;;;10.80;3.80;;;-1.10;99.90;;;;;;5018680;28;20030;-74
2023/02/27 08:01:58;;;;;;;9.43;5.00;;;-1.10;99.90;;;;;;5020636;28;20056;-74
2023/02/27 08:04:24;;;;;;;9.83;4.40;;;-1.00;99.90;;;;;;5019447;28;20074;-74
2023/02/27 08:06:49;;;;;;;5.93;3.63;;;-1.00;99.90;;;;;;5022551;28;20985;-74
2023/02/27 08:09:15;;;;;;;5.47;3.37;;;-1.00;99.90;;;;;;5020374;28;20120;-74
2023/02/27 08:11:40;;;;;;;8.43;4.03;;;-1.00;99.90;;;;;;5028332;28;20108;-74
2023/02/27 08:14:06;;;;;;;6.87;3.60;;;-0.90;99.90;;;;;;5028767;28;20057;-76
2023/02/27 08:16:32;;;;;;;8.77;4.00;;;-0.90;99.90;;;;;;5034841;28;20135;-77
2023/02/27 08:18:58;;;;;;;6.40;3.57;;;-0.90;99.90;;;;;;5036112;28;20040;-76
2023/02/27 08:21:25;;;;;;;5.43;3.40;;;-0.90;99.90;;;;;;5038561;28;20075;-76
2023/02/27 08:23:51;;;;;;;7.23;3.70;;;-0.80;99.90;;;;;;5033761;28;20038;-76
2023/02/27 08:26:17;;;;;;;7.30;3.90;;;-0.80;99.90;;;;;;5030668;28;20021;-76
2023/02/27 08:28:43;;;;;;;6.17;3.43;;;-0.70;99.90;;;;;;5031298;28;20107;-76
2023/02/27 08:31:08;;;;;;;8.43;3.90;;;-0.70;99.90;;;;;;5032275;28;20033;-77
2023/02/27 08:33:34;;;;;;;7.57;3.70;;;-0.70;99.90;;;;;;5030395;28;20692;-76
2023/02/27 08:35:59;;;;;;;8.40;4.03;;;-0.70;99.90;;;;;;5031598;28;20025;-76
2023/02/27 08:38:25;;;;;;;6.70;4.07;;;-0.70;99.90;;;;;;5033170;28;20029;-74
2023/02/27 08:40:53;;;;;;;7.57;3.93;;;-0.70;99.90;;;;;;5035060;28;20033;-74
2023/02/27 08:43:21;;;;;;;9.20;4.23;;;-0.70;99.90;;;;;;5029545;28;20107;-76
2023/02/27 08:45:49;;;;;;;9.13;4.70;;;-0.70;99.90;;;;;;5029420;28;20109;-76
2023/02/27 08:48:16;;;;;;;8.23;3.63;;;-0.70;99.90;;;;;;5029855;28;20424;-76
2023/02/27 08:50:45;;;;;;;7.50;3.63;;;-0.70;99.90;;;;;;5029644;28;20493;-76
2023/02/27 08:53:11;;;;;;;9.67;4.20;;;-0.60;99.90;;;;;;5030541;28;20036;-76
2023/02/27 08:55:36;;;;;;;8.53;4.47;;;-0.60;99.90;;;;;;5034534;28;20029;-76
2023/02/27 08:58:03;;;;;;;8.93;4.47;;;-0.60;99.90;;;;;;5033378;28;20029;-76
2023/02/27 09:00:28;;;;;;;9.53;4.43;;;-0.60;99.90;;;;;;5027854;28;20029;-76
2023/02/27 09:02:54;;;;;;;6.53;4.13;;;-0.60;99.90;;;;;;5026199;28;20032;-76
2023/02/27 09:05:21;;;;;;;19.87;8.50;;;-0.60;99.90;;;;;;5028077;28;20805;-76
2023/02/27 09:07:47;;;;;;;10.83;5.97;;;-0.60;99.90;;;;;;5029286;28;20036;-76
2023/02/27 09:10:13;;;;;;;9.00;4.67;;;-0.50;99.90;;;;;;5028554;28;20042;-76
2023/02/27 09:12:38;;;;;;;10.63;5.53;;;-0.50;99.90;;;;;;5025903;28;20032;-76
2023/02/27 09:15:05;;;;;;;7.43;4.67;;;-0.50;99.90;;;;;;5026666;28;20029;-74
2023/02/27 09:17:31;;;;;;;12.50;6.10;;;-0.50;99.90;;;;;;5029811;28;20189;-76
2023/02/27 09:19:57;;;;;;;10.50;6.20;;;-0.40;99.90;;;;;;5030304;28;20563;-76
2023/02/27 09:22:23;;;;;;;8.83;5.07;;;-0.40;99.90;;;;;;5032762;28;20018;-76
2023/02/27 09:24:49;;;;;;;10.97;6.30;;;-0.40;99.90;;;;;;5031506;28;20065;-76
2023/02/27 09:27:15;;;;;;;9.70;5.73;;;-0.40;99.90;;;;;;5031799;28;20123;-76
2023/02/27 09:29:40;;;;;;;10.10;5.60;;;-0.40;99.90;;;;;;5032178;28;20501;-76
2023/02/27 09:32:06;;;;;;;8.67;4.63;;;-0.30;99.90;;;;;;5030657;28;20032;-76
2023/02/27 09:34:32;;;;;;;7.20;4.70;;;-0.30;99.90;;;;;;5029468;28;20028;-76
2023/02/27 09:36:59;;;;;;;10.47;4.80;;;-0.30;99.90;;;;;;5030829;28;20021;-76
2023/02/27 09:39:28;;;;;;;7.60;4.20;;;-0.30;99.90;;;;;;5032311;28;20056;-76
2023/02/27 09:42:32;;;;;;;22.33;7.47;;;-0.30;99.90;;;;;;5028314;28;20107;-76
2023/02/27 09:45:03;;;;;;;11.73;5.17;;;-0.20;99.90;;;;;;5019047;28;20044;-74
2023/02/27 09:47:41;;;;;;;9.50;4.07;;;-0.20;99.90;;;;;;5033690;28;20502;-74
2023/02/27 09:50:36;;;;;;;10.13;4.73;;;-0.10;99.90;;;;;;5031663;28;20059;-74
2023/02/27 09:53:03;;;;;;;12.50;5.18;;;-0.10;99.90;;;;;;5032364;28;20064;-74
2023/02/27 09:55:32;;;;;;;15.17;6.13;;;-0.10;99.90;;;;;;5035193;28;20056;-74
2023/02/27 09:58:26;;;;;;;11.73;5.53;;;-0.20;99.90;;;;;;5032637;28;20014;-74
2023/02/27 10:01:13;;;;;;;19.27;5.70;;;-0.30;99.90;;;;;;5029231;28;20071;-74
2023/02/27 10:03:54;;;;;;;12.13;4.87;;;-0.40;99.90;;;;;;5034278;28;20025;-74
2023/02/27 10:06:31;;;;;;;52.20;20.07;;;-0.40;99.90;;;;;;5037085;28;20088;-74
2023/02/27 10:09:45;;;;;;;22.97;7.30;;;-0.50;99.90;;;;;;5035803;28;20532;-74
2023/02/27 10:12:47;;;;;;;11.97;5.23;;;-0.60;99.90;;;;;;4993003;28;20855;-74
2023/02/27 10:15:26;;;;;;;21.37;10.93;;;-0.70;99.90;;;;;;4992312;28;20495;-74
2023/02/27 10:18:08;;;;;;;13.20;5.47;;;-0.60;99.90;;;;;;5029953;28;20072;-74
2023/02/27 10:20:40;;;;;;;12.57;6.00;;;-0.60;99.90;;;;;;5034469;28;20033;-74
2023/02/27 10:23:15;;;;;;;12.07;5.20;;;-0.50;99.90;;;;;;5038550;28;20104;-74
2023/02/27 10:25:45;;;;;;;9.30;5.20;;;-0.50;99.90;;;;;;5032640;28;20489;-74
2023/02/27 10:28:14;;;;;;;10.73;4.67;;;-0.40;99.90;;;;;;5035006;28;20120;-74
2023/02/27 10:30:42;;;;;;;7.77;4.23;;;-0.40;99.90;;;;;;5038054;28;20076;-74
2023/02/27 10:33:11;;;;;;;8.60;4.80;;;-0.30;99.90;;;;;;5035828;28;20485;-74
2023/02/27 10:35:41;;;;;;;9.27;4.93;;;-0.30;99.90;;;;;;5033645;28;20645;-74
2023/02/27 10:38:15;;;;;;;9.07;4.17;;;-0.20;99.90;;;;;;5034208;28;20041;-75
2023/02/27 10:40:42;;;;;;;9.33;4.43;;;-0.30;99.90;;;;;;5031846;28;20025;-74
2023/02/27 10:43:14;;;;;;;12.27;4.47;;;-0.30;99.90;;;;;;5035668;28;20116;-74
2023/02/27 10:45:41;;;;;;;8.90;4.47;;;-0.20;99.90;;;;;;5034469;28;20049;-74
2023/02/27 10:48:07;;;;;;;10.67;4.13;;;-0.20;99.90;;;;;;5031997;28;20049;-74
2023/02/27 10:50:45;;;;;;;7.50;4.10;;;-0.10;99.90;;;;;;5035703;28;20108;-74
2023/02/27 10:53:20;;;;;;;7.93;3.83;;;-0.10;99.90;;;;;;5035421;28;21148;-74
2023/02/27 10:56:02;;;;;;;8.02;3.65;;;0.00;99.90;;;;;;5031870;28;20040;-74
2023/02/27 10:58:31;;;;;;;7.50;3.57;;;0.00;99.90;;;;;;5033006;28;20025;-74
2023/02/27 11:01:04;;;;;;;6.50;3.33;;;0.10;99.90;;;;;;5034581;28;21317;-74
2023/02/27 11:03:35;;;;;;;9.10;3.70;;;0.20;99.90;;;;;;5029942;28;20021;-74
2023/02/27 11:06:07;;;;;;;9.03;3.90;;;0.40;99.90;;;;;;5032345;28;20139;-74
2023/02/27 11:08:34;;;;;;;5.53;3.47;;;0.40;99.90;;;;;;5034563;28;20424;-74
2023/02/27 11:11:10;;;;;;;6.50;4.07;;;0.50;99.90;;;;;;5032982;28;20059;-74
2023/02/27 11:13:43;;;;;;;6.47;3.50;;;0.50;99.90;;;;;;5033640;28;20167;-74
2023/02/27 11:16:20;;;;;;;8.67;3.57;;;0.60;99.90;;;;;;5035776;28;20025;-74
2023/02/27 11:18:48;;;;;;;6.93;3.70;;;0.60;99.90;;;;;;5034605;28;20074;-74
2023/02/27 11:21:19;;;;;;;5.37;2.90;;;0.50;99.90;;;;;;5030870;28;20021;-74
2023/02/27 11:23:59;;;;;;;7.93;3.90;;;0.50;99.90;;;;;;5034169;28;20021;-74
2023/02/27 11:26:37;;;;;;;7.33;3.30;;;0.50;99.90;;;;;;5033137;28;20044;-74
2023/02/27 11:29:17;;;;;;;4.50;2.90;;;0.40;99.90;;;;;;5032047;28;20052;-76
2023/02/27 11:31:58;;;;;;;6.20;2.77;;;0.40;99.90;;;;;;5027376;28;20032;-77
2023/02/27 11:34:27;;;;;;;14.60;4.00;;;0.40;99.90;;;;;;5033142;28;20021;-77
2023/02/27 11:37:03;;;;;;;9.20;3.40;;;0.40;99.90;;;;;;5030280;28;20025;-77
2023/02/27 11:39:35;;;;;;;24.70;9.80;;;0.40;99.90;;;;;;5037514;28;20041;-77
2023/02/27 11:42:22;;;;;;;9.97;4.70;;;0.40;99.90;;;;;;5049089;28;20139;-77
2023/02/27 11:45:00;;;;;;;33.63;10.97;;;0.40;99.90;;;;;;5034310;28;20041;-77
2023/02/27 11:47:35;;;;;;;12.27;4.13;;;0.40;99.90;;;;;;5040063;28;20045;-77
2023/02/27 11:50:38;;;;;;;39.60;12.47;;;0.40;99.90;;;;;;5038673;28;20491;-77
2023/02/27 11:53:18;;;;;;;43.13;15.20;;;0.50;99.90;;;;;;5036176;28;20030;-77
2023/02/27 11:55:46;;;;;;;17.03;6.93;;;0.40;99.90;;;;;;5036271;28;20018;-77
2023/02/27 11:58:21;;;;;;;44.90;16.30;;;0.50;99.90;;;;;;5029411;28;20112;-77
2023/02/27 12:01:02;;;;;;;76.18;24.00;;;0.40;99.90;;;;;;5029001;28;20029;-78
2023/02/27 12:04:05;;;;;;;62.90;18.63;;;0.40;99.90;;;;;;5032781;28;20021;-77
2023/02/27 12:06:39;;;;;;;60.77;18.50;;;0.50;99.90;;;;;;5031156;28;20022;-77
2023/02/27 12:09:32;;;;;;;34.67;11.33;;;0.50;99.90;;;;;;5029574;28;20151;-77
2023/02/27 12:12:01;;;;;;;92.20;30.30;;;0.50;99.90;;;;;;5031847;28;20395;-78
2023/02/27 12:14:41;;;;;;;27.17;8.70;;;0.60;99.90;;;;;;5030016;28;20044;-78
2023/02/27 12:17:41;;;;;;;30.27;11.90;;;0.50;99.90;;;;;;5030941;28;20033;-78
2023/02/27 12:20:37;;;;;;;8.10;4.00;;;0.60;99.90;;;;;;5031940;28;20017;-78
2023/02/27 12:23:07;;;;;;;;;;;0.60;99.90;;;;;;5031051;28;20029;-77
2023/02/27 12:25:39;;;;;;;6.33;3.27;;;0.70;99.90;;;;;;5029913;28;20332;-77
2023/02/27 12:28:17;;;;;;;8.63;3.37;;;0.70;99.90;;;;;;5028865;28;20026;-78
2023/02/27 12:30:48;;;;;;;9.10;3.03;;;0.70;99.90;;;;;;5029917;28;20128;-78
2023/02/27 12:33:25;;;;;;;7.97;3.00;;;0.70;99.90;;;;;;5031624;28;20030;-78
2023/02/27 12:36:00;;;;;;;6.57;3.07;;;0.60;99.90;;;;;;5032837;28;21396;-78
2023/02/27 12:38:25;;;;;;;7.13;2.75;;;0.50;99.90;;;;;;5032191;28;20459;-78
2023/02/27 12:40:57;;;;;;;8.80;3.00;;;0.50;99.90;;;;;;5035373;28;20032;-77
2023/02/27 12:43:22;;;;;;;5.30;3.10;;;0.50;99.90;;;;;;5033984;28;20862;-77
2023/02/27 12:46:00;;;;;;;6.17;3.47;;;0.50;99.90;;;;;;5027025;28;20037;-78
2023/02/27 12:48:50;;;;;;;10.90;5.20;;;0.50;99.90;;;;;;5028790;28;20044;-78
2023/02/27 12:51:39;;;;;;;5.93;2.97;;;0.50;99.90;;;;;;5033500;28;20117;-78
2023/02/27 12:54:43;;;;;;;6.77;2.77;;;0.40;99.90;;;;;;5029364;28;20021;-78
2023/02/27 12:57:32;;;;;;;11.93;3.60;;;0.50;99.90;;;;;;5029539;28;20551;-78
2023/02/27 13:00:13;;;;;;;3.37;2.20;;;0.50;99.90;;;;;;5032227;28;20013;-78
2023/02/27 13:02:53;;;;;;;6.87;2.43;;;0.60;99.90;;;;;;5029570;28;20137;-78
2023/02/27 13:05:35;;;;;;;6.93;2.43;;;0.50;99.90;;;;;;5032320;28;20025;-78
2023/02/27 13:08:20;;;;;;;5.07;2.53;;;0.50;99.90;;;;;;5033887;28;20025;-78
2023/02/27 13:11:00;;;;;;;10.03;2.93;;;0.50;99.90;;;;;;5032074;28;20041;-78
2023/02/27 13:13:36;;;;;;;5.40;2.87;;;0.40;99.90;;;;;;5030117;28;20038;-78